Frye, Maine
Current Conditions -  °F | °C
As of 10:52 AM on Friday 28 Nov 2014 (Local Time) from KBML Reporting Station
Overcast Overcast  
Wind Chill: 19°   Ceiling: 1900
Heat Index: 25°   Visibility: 8mi
Dew Point: 18°   Wind: 5mph
Humidity: 75%   Direction: NA
Pressure: 29.99"   Gusts: NA
Location:  44.7286°N, 70.6272°W
Report Text: KBML 281552Z AUTO VRB04KT 8SM BKN019 BKN030 OVC037 M04/M08 A2999 RMK AO2 SLP174 T10391078
Loading
Personal Weather Stations






























Interactive Weather Map New forecast layout! Learn more

10-Day Weather Forecast

Advertisements
Track Severe Weather on mobile